createdAt,value
2022-09-05T00:02:26.291Z,22.80
2022-09-05T00:05:15.101Z,22.80
2022-09-05T00:08:00.602Z,22.80
2022-09-05T00:10:35.943Z,22.70
2022-09-05T00:13:10.025Z,22.70
2022-09-05T00:16:24.637Z,22.60
2022-09-05T00:24:20.425Z,22.60
2022-09-05T00:24:34.504Z,22.60
2022-09-05T00:25:51.205Z,22.60
2022-09-05T00:28:34.980Z,22.50
2022-09-05T00:31:53.406Z,22.50
2022-09-05T00:34:56.273Z,22.40
2022-09-05T00:37:47.521Z,22.40
2022-09-05T00:40:21.128Z,22.30
2022-09-05T00:42:51.474Z,22.30
2022-09-05T00:45:27.854Z,22.30
2022-09-05T00:47:54.440Z,22.20
2022-09-05T00:50:28.181Z,22.20
2022-09-05T00:53:06.646Z,22.20
2022-09-05T00:56:01.537Z,22.10
2022-09-05T00:58:40.792Z,22.10
2022-09-05T01:01:31.682Z,22.10
2022-09-05T01:04:07.998Z,22.10
2022-09-05T01:06:41.870Z,22.00
2022-09-05T01:09:39.765Z,21.90
2022-09-05T01:12:27.407Z,21.90
2022-09-05T01:15:08.386Z,21.90
2022-09-05T01:17:56.408Z,21.80
2022-09-05T01:20:55.857Z,21.80
2022-09-05T01:23:40.690Z,21.80
2022-09-05T01:26:27.812Z,21.80
2022-09-05T01:29:16.478Z,21.80
2022-09-05T01:32:23.208Z,21.70
2022-09-05T01:35:27.201Z,21.70
2022-09-05T01:37:55.875Z,21.60
2022-09-05T01:40:53.663Z,21.60
2022-09-05T01:43:58.796Z,21.50
2022-09-05T01:46:53.649Z,21.50
2022-09-05T01:49:41.624Z,21.50
2022-09-05T01:52:26.122Z,21.50
2022-09-05T01:55:17.788Z,21.40
2022-09-05T01:57:56.344Z,21.40
2022-09-05T02:00:29.718Z,21.30
2022-09-05T02:03:15.212Z,21.30
2022-09-05T02:06:09.947Z,21.30
2022-09-05T02:08:45.520Z,21.20
2022-09-05T02:11:13.317Z,21.20
2022-09-05T02:13:51.564Z,21.20
2022-09-05T02:16:38.816Z,21.20
2022-09-05T02:19:14.976Z,21.20
2022-09-05T02:22:00.255Z,21.10
2022-09-05T02:24:33.144Z,21.10
2022-09-05T02:28:03.489Z,21.00
2022-09-05T02:30:20.558Z,21.00
2022-09-05T02:33:10.356Z,21.00
2022-09-05T02:35:45.984Z,21.00
2022-09-05T02:41:51.327Z,21.00
2022-09-05T02:45:18.938Z,20.90
2022-09-05T02:45:25.412Z,20.90
2022-09-05T02:47:54.763Z,20.80
2022-09-05T02:53:13.793Z,20.80
2022-09-05T02:57:41.941Z,20.80
2022-09-05T02:58:04.275Z,20.80
2022-09-05T02:59:39.544Z,20.70
2022-09-05T03:02:25.376Z,20.70
2022-09-05T03:04:55.563Z,20.70
2022-09-05T03:07:51.823Z,20.60
2022-09-05T03:10:53.462Z,20.60
2022-09-05T03:13:58.006Z,20.60
2022-09-05T03:17:02.557Z,20.50
2022-09-05T03:19:56.743Z,20.50
2022-09-05T03:22:38.804Z,20.50
2022-09-05T03:25:30.852Z,20.50
2022-09-05T03:28:18.656Z,20.40
2022-09-05T03:31:06.723Z,20.40
2022-09-05T03:33:58.879Z,20.40
2022-09-05T03:36:41.967Z,20.40
2022-09-05T03:39:32.508Z,20.40
2022-09-05T03:42:14.845Z,20.30
2022-09-05T03:45:38.426Z,20.30
2022-09-05T03:48:34.033Z,20.30
2022-09-05T03:57:07.465Z,20.20
2022-09-05T03:57:25.335Z,20.20
2022-09-05T03:58:01.304Z,20.10
2022-09-05T04:02:35.295Z,20.10
2022-09-05T04:08:07.988Z,20.10
2022-09-05T04:08:27.806Z,20.10
2022-09-05T04:10:07.445Z,20.00
2022-09-05T04:12:36.523Z,20.00
2022-09-05T04:15:15.125Z,20.00
2022-09-05T04:17:51.582Z,19.90
2022-09-05T04:20:29.947Z,19.90
2022-09-05T04:23:14.328Z,19.90
2022-09-05T04:26:19.442Z,19.90
2022-09-05T04:29:16.766Z,19.80
2022-09-05T04:31:56.245Z,20.20
2022-09-05T04:35:09.184Z,19.80
2022-09-05T04:37:55.132Z,19.80
2022-09-05T04:40:34.001Z,19.80
2022-09-05T04:43:24.816Z,19.70
2022-09-05T04:46:05.950Z,19.70
2022-09-05T04:48:53.414Z,19.70
2022-09-05T04:52:00.218Z,19.60
2022-09-05T04:54:56.490Z,19.60
2022-09-05T04:57:33.641Z,19.60
2022-09-05T05:06:04.956Z,19.60
2022-09-05T05:06:13.322Z,19.60
2022-09-05T05:06:18.911Z,19.50
2022-09-05T05:08:51.499Z,19.50
2022-09-05T05:17:35.352Z,19.50
2022-09-05T05:18:00.053Z,19.50
2022-09-05T05:18:12.353Z,19.40
2022-09-05T05:20:40.719Z,19.40
2022-09-05T05:23:13.745Z,19.40
2022-09-05T05:25:53.547Z,19.30
2022-09-05T05:28:27.168Z,19.30
2022-09-05T05:31:01.279Z,19.30
2022-09-05T05:33:35.087Z,19.30
2022-09-05T05:36:03.050Z,19.30
2022-09-05T05:38:53.566Z,19.30
2022-09-05T05:41:26.303Z,19.30
2022-09-05T05:43:53.071Z,19.30
2022-09-05T05:46:34.463Z,19.30
2022-09-05T05:49:42.323Z,19.30
2022-09-05T05:52:33.746Z,19.20
2022-09-05T05:55:28.440Z,19.20
2022-09-05T05:58:05.791Z,19.30
2022-09-05T06:00:51.998Z,19.30
2022-09-05T06:03:24.928Z,19.30
2022-09-05T06:06:08.084Z,19.20
2022-09-05T06:14:31.272Z,19.30
2022-09-05T06:14:57.886Z,19.30
2022-09-05T06:15:16.524Z,19.30
2022-09-05T06:18:25.508Z,19.30
2022-09-05T06:22:10.359Z,19.30
2022-09-05T06:24:08.994Z,19.30
2022-09-05T06:26:54.380Z,19.30
2022-09-05T06:29:58.480Z,19.30
2022-09-05T06:32:58.328Z,19.30
2022-09-05T06:35:37.460Z,19.30
2022-09-05T06:38:04.073Z,19.30
2022-09-05T06:40:42.314Z,19.40
2022-09-05T06:43:45.024Z,19.50
2022-09-05T06:46:40.872Z,19.60
2022-09-05T06:49:29.736Z,19.60
2022-09-05T06:52:28.252Z,19.70
2022-09-05T06:55:15.052Z,19.70
2022-09-05T06:57:52.718Z,19.70
2022-09-05T07:00:36.366Z,19.80
2022-09-05T07:03:22.730Z,19.80
2022-09-05T07:06:01.944Z,19.90
2022-09-05T07:08:45.152Z,19.90
2022-09-05T07:11:19.931Z,19.90
2022-09-05T07:14:04.819Z,19.90
2022-09-05T07:16:38.916Z,20.00
2022-09-05T07:19:18.577Z,20.10
2022-09-05T07:22:41.718Z,20.20
2022-09-05T07:25:08.986Z,20.20
2022-09-05T07:28:28.423Z,20.30
2022-09-05T07:30:50.982Z,20.40
2022-09-05T07:33:20.578Z,20.40
2022-09-05T07:35:47.888Z,20.50
2022-09-05T07:38:43.511Z,20.60
2022-09-05T07:41:20.262Z,20.60
2022-09-05T07:43:49.264Z,20.80
2022-09-05T07:46:20.952Z,20.90
2022-09-05T07:48:52.116Z,21.00
2022-09-05T07:56:56.623Z,21.30
2022-09-05T07:56:56.678Z,21.20
2022-09-05T07:57:32.014Z,21.40
2022-09-05T08:00:25.695Z,21.60
2022-09-05T08:02:55.026Z,21.70
2022-09-05T08:05:34.344Z,21.80
2022-09-05T08:08:06.055Z,21.90
2022-09-05T08:11:21.938Z,22.00
2022-09-05T08:13:46.300Z,22.20
2022-09-05T08:16:16.815Z,22.30
2022-09-05T08:18:54.731Z,22.40
2022-09-05T08:21:48.735Z,22.50
2022-09-05T08:24:27.205Z,22.70
2022-09-05T08:27:23.342Z,22.80
2022-09-05T08:30:25.172Z,22.90
2022-09-05T08:32:53.155Z,23.00
2022-09-05T08:35:41.202Z,23.10
2022-09-05T08:38:08.598Z,23.20
2022-09-05T08:40:39.264Z,23.40
2022-09-05T08:46:36.550Z,23.50
2022-09-05T08:47:02.974Z,23.60
2022-09-05T08:49:41.381Z,23.70
2022-09-05T08:52:32.399Z,23.90
2022-09-05T08:55:08.004Z,24.00
2022-09-05T08:57:52.805Z,24.10
2022-09-05T09:00:31.327Z,24.30
2022-09-05T09:03:19.503Z,24.40
2022-09-05T09:06:12.723Z,24.50
2022-09-05T09:09:06.978Z,24.70
2022-09-05T09:11:38.988Z,24.80
2022-09-05T09:14:31.080Z,24.90
2022-09-05T09:17:23.652Z,25.10
2022-09-05T09:20:09.918Z,25.10
2022-09-05T09:22:39.078Z,25.30
2022-09-05T09:25:16.768Z,25.40
2022-09-05T09:28:47.372Z,25.50
2022-09-05T09:31:11.374Z,25.60
2022-09-05T09:34:17.008Z,25.70
2022-09-05T09:36:58.740Z,25.80
2022-09-05T09:39:38.603Z,26.00
2022-09-05T09:42:33.229Z,26.10
2022-09-05T09:45:29.420Z,26.20
2022-09-05T09:48:32.540Z,26.30
2022-09-05T09:51:02.299Z,26.40
2022-09-05T09:53:41.235Z,26.50
2022-09-05T09:56:17.161Z,26.60
2022-09-05T09:58:53.256Z,26.80
2022-09-05T10:01:36.722Z,26.90
2022-09-05T10:09:07.895Z,27.00
2022-09-05T10:10:49.910Z,27.10
2022-09-05T10:10:53.747Z,27.20
2022-09-05T10:13:15.851Z,27.30
2022-09-05T10:16:07.384Z,27.40
2022-09-05T10:19:00.236Z,27.50
2022-09-05T10:21:36.002Z,27.60
2022-09-05T10:24:23.065Z,27.70
2022-09-05T10:27:27.218Z,27.80
2022-09-05T10:30:15.344Z,27.90
2022-09-05T10:35:17.775Z,28.00
2022-09-05T10:36:25.341Z,28.20
2022-09-05T10:39:14.392Z,28.20
2022-09-05T10:42:02.572Z,28.40
2022-09-05T10:44:40.454Z,28.40
2022-09-05T10:47:22.516Z,28.60
2022-09-05T10:49:50.534Z,28.60
2022-09-05T10:52:27.368Z,28.70
2022-09-05T10:55:14.800Z,28.80
2022-09-05T10:58:41.797Z,28.80
2022-09-05T11:02:27.530Z,28.90
2022-09-05T11:04:07.940Z,29.00
2022-09-05T11:06:52.852Z,29.10
2022-09-05T11:09:48.303Z,29.20
2022-09-05T11:12:37.627Z,29.20
2022-09-05T11:15:26.121Z,29.30
2022-09-05T11:18:09.109Z,29.40
2022-09-05T11:20:38.737Z,29.50
2022-09-05T11:23:12.650Z,29.50
2022-09-05T11:25:41.175Z,29.60
2022-09-05T11:28:17.475Z,29.70
2022-09-05T11:30:50.649Z,29.70
2022-09-05T11:39:48.425Z,29.80
2022-09-05T11:39:58.277Z,30.00
2022-09-05T11:40:31.149Z,30.00
2022-09-05T11:43:30.552Z,30.20
2022-09-05T11:46:32.504Z,30.20
2022-09-05T11:49:31.345Z,30.30
2022-09-05T11:52:17.037Z,30.40
2022-09-05T11:55:21.346Z,30.50
2022-09-05T11:58:43.278Z,30.50
2022-09-05T12:01:41.037Z,30.60
2022-09-05T12:04:32.516Z,30.80
2022-09-05T12:07:15.631Z,30.90
2022-09-05T12:10:10.356Z,30.90
2022-09-05T12:13:26.591Z,31.10
2022-09-05T12:16:08.617Z,31.20
2022-09-05T12:18:54.076Z,31.30
2022-09-05T12:21:45.172Z,31.30
2022-09-05T12:25:24.088Z,31.40
2022-09-05T12:27:42.035Z,31.50
2022-09-05T12:30:00.493Z,31.60
2022-09-05T12:35:45.728Z,31.70
2022-09-05T12:36:04.662Z,31.80
2022-09-05T12:40:46.160Z,31.90
2022-09-05T12:42:14.728Z,32.00
2022-09-05T12:44:46.583Z,32.10
2022-09-05T12:47:19.360Z,32.20
2022-09-05T12:50:15.401Z,32.20
2022-09-05T12:52:46.352Z,32.30
2022-09-05T12:55:33.614Z,32.40
2022-09-05T13:02:55.480Z,32.40
2022-09-05T13:03:09.165Z,32.50
2022-09-05T13:04:13.385Z,32.60
2022-09-05T13:06:35.773Z,32.70
2022-09-05T13:09:16.442Z,32.80
2022-09-05T13:14:49.162Z,32.90
2022-09-05T13:15:21.818Z,33.00
2022-09-05T13:18:08.514Z,33.10
2022-09-05T13:20:39.255Z,33.10
2022-09-05T13:23:17.180Z,33.20
2022-09-05T13:25:45.673Z,33.40
2022-09-05T13:28:14.476Z,33.40
2022-09-05T13:37:54.401Z,33.50
2022-09-05T13:38:05.340Z,33.70
2022-09-05T13:38:07.596Z,33.70
2022-09-05T13:39:23.279Z,33.80
2022-09-05T13:41:53.774Z,33.90
2022-09-05T13:44:26.453Z,33.90
2022-09-05T13:47:28.831Z,34.00
2022-09-05T13:50:22.319Z,34.10
2022-09-05T13:52:56.794Z,34.20
2022-09-05T13:55:45.171Z,34.30
2022-09-05T13:58:50.992Z,34.50
2022-09-05T14:01:54.609Z,34.50
2022-09-05T14:05:06.637Z,34.70
2022-09-05T14:07:57.689Z,34.80
2022-09-05T14:10:47.092Z,34.90
2022-09-05T14:13:27.367Z,35.00
2022-09-05T14:16:01.579Z,35.10
2022-09-05T14:18:30.177Z,35.20
2022-09-05T14:21:16.274Z,35.30
2022-09-05T14:23:56.303Z,35.40
2022-09-05T14:26:45.663Z,35.50
2022-09-05T14:29:20.900Z,35.60
2022-09-05T14:36:33.481Z,35.60
2022-09-05T14:37:50.572Z,35.70
2022-09-05T14:38:38.806Z,35.80
2022-09-05T14:41:39.972Z,36.00
2022-09-05T14:44:33.482Z,36.00
2022-09-05T14:47:36.411Z,36.10
2022-09-05T14:50:39.255Z,36.20
2022-09-05T14:56:46.449Z,36.40
2022-09-05T15:02:43.150Z,36.50
2022-09-05T15:02:50.347Z,36.60
2022-09-05T15:07:30.705Z,36.70
2022-09-05T15:12:16.061Z,36.80
2022-09-05T15:13:11.408Z,36.90
2022-09-05T15:15:40.619Z,36.90
2022-09-05T15:18:20.680Z,36.90
2022-09-05T15:20:52.907Z,37.00
2022-09-05T15:23:19.532Z,37.00
2022-09-05T15:26:01.835Z,37.00
2022-09-05T15:28:40.467Z,36.90
2022-09-05T15:31:18.791Z,36.90
2022-09-05T15:33:47.134Z,36.90
2022-09-05T15:36:17.164Z,36.90
2022-09-05T15:38:55.038Z,36.90
2022-09-05T15:41:24.927Z,36.90
2022-09-05T15:44:09.548Z,36.90
2022-09-05T15:47:03.715Z,36.90
2022-09-05T15:49:38.990Z,36.90
2022-09-05T15:52:37.820Z,36.80
2022-09-05T15:55:24.960Z,36.80
2022-09-05T15:58:03.355Z,36.80
2022-09-05T16:00:33.078Z,36.80
2022-09-05T16:04:28.704Z,36.70
2022-09-05T16:10:27.813Z,36.70
2022-09-05T16:10:42.376Z,36.70
2022-09-05T16:14:39.725Z,36.60
2022-09-05T16:23:19.238Z,36.50
2022-09-05T16:23:31.430Z,36.40
2022-09-05T16:23:40.431Z,36.30
2022-09-05T16:26:25.850Z,36.30
2022-09-05T16:29:10.573Z,36.10
2022-09-05T16:31:47.694Z,36.00
2022-09-05T16:34:49.768Z,35.90
2022-09-05T16:37:21.635Z,35.90
2022-09-05T16:40:16.634Z,35.70
2022-09-05T16:42:54.282Z,35.70
2022-09-05T16:45:43.540Z,35.60
2022-09-05T16:48:32.937Z,35.50
2022-09-05T16:51:15.947Z,35.40
2022-09-05T16:53:59.168Z,35.30
2022-09-05T16:56:37.879Z,35.20
2022-09-05T16:59:11.846Z,35.10
2022-09-05T17:02:07.543Z,35.00
2022-09-05T17:05:02.986Z,34.90
2022-09-05T17:08:09.264Z,34.80
2022-09-05T17:10:58.154Z,34.80
2022-09-05T17:13:38.231Z,34.70
2022-09-05T17:16:05.779Z,34.60
2022-09-05T17:18:35.304Z,34.50
2022-09-05T17:21:07.985Z,34.40
2022-09-05T17:29:16.530Z,34.30
2022-09-05T17:29:26.024Z,34.30
2022-09-05T17:32:32.097Z,34.10
2022-09-05T17:35:16.476Z,34.00
2022-09-05T17:38:11.059Z,34.00
2022-09-05T17:41:08.603Z,33.90
2022-09-05T17:43:38.598Z,33.70
2022-09-05T17:46:24.187Z,33.60
2022-09-05T17:49:08.645Z,33.60
2022-09-05T17:51:41.980Z,33.50
2022-09-05T17:54:25.535Z,33.40
2022-09-05T17:56:53.338Z,33.30
2022-09-05T17:59:20.277Z,33.20
2022-09-05T18:02:02.113Z,33.20
2022-09-05T18:04:46.905Z,33.00
2022-09-05T18:07:25.683Z,33.00
2022-09-05T18:10:12.737Z,32.90
2022-09-05T18:15:34.435Z,32.80
2022-09-05T18:18:05.067Z,32.70
2022-09-05T18:20:41.354Z,32.60
2022-09-05T18:23:39.338Z,32.50
2022-09-05T18:26:23.398Z,32.50
2022-09-05T18:29:14.392Z,32.40
2022-09-05T18:31:43.507Z,32.30
2022-09-05T18:34:14.642Z,32.10
2022-09-05T18:36:46.030Z,32.10
2022-09-05T18:39:27.696Z,32.00
2022-09-05T18:42:25.582Z,32.00
2022-09-05T18:45:02.654Z,31.90
2022-09-05T18:47:39.080Z,31.80
2022-09-05T18:50:26.955Z,31.70
2022-09-05T18:53:10.393Z,31.70
2022-09-05T18:56:11.024Z,31.60
2022-09-05T18:58:51.970Z,31.50
2022-09-05T19:01:32.149Z,31.50
2022-09-05T19:04:02.250Z,31.40
2022-09-05T19:06:36.071Z,31.40
2022-09-05T19:09:15.016Z,31.30
2022-09-05T19:11:53.683Z,31.20
2022-09-05T19:14:42.791Z,31.10
2022-09-05T19:17:20.283Z,31.10
2022-09-05T19:20:32.645Z,31.00
2022-09-05T19:23:10.395Z,30.90
2022-09-05T19:25:44.377Z,30.80
2022-09-05T19:36:46.051Z,30.70
2022-09-05T19:36:58.632Z,30.70
2022-09-05T19:37:06.619Z,30.60
2022-09-05T19:37:38.239Z,30.50
2022-09-05T19:43:37.682Z,30.50
2022-09-05T19:47:36.179Z,30.40
2022-09-05T19:47:39.127Z,30.30
2022-09-05T19:48:34.535Z,30.30
2022-09-05T19:51:17.112Z,30.20
2022-09-05T19:53:54.083Z,30.10
2022-09-05T19:56:43.315Z,30.10
2022-09-05T19:59:24.403Z,30.00
2022-09-05T20:01:52.941Z,30.00
2022-09-05T20:04:20.923Z,29.90
2022-09-05T20:06:49.141Z,29.90
2022-09-05T20:09:18.311Z,29.80
2022-09-05T20:11:50.087Z,29.70
2022-09-05T20:14:19.333Z,29.70
2022-09-05T20:16:49.671Z,29.60
2022-09-05T20:19:28.776Z,29.50
2022-09-05T20:22:24.273Z,29.50
2022-09-05T20:24:53.820Z,29.40
2022-09-05T20:27:27.205Z,29.30
2022-09-05T20:30:06.762Z,29.30
2022-09-05T20:32:46.408Z,29.20
2022-09-05T20:40:38.769Z,29.20
2022-09-05T20:43:11.996Z,29.10
2022-09-05T20:43:30.012Z,29.00
2022-09-05T20:43:58.347Z,28.90
2022-09-05T20:50:44.504Z,28.90
2022-09-05T20:54:24.889Z,28.80
2022-09-05T20:54:26.981Z,28.70
2022-09-05T20:54:59.506Z,28.70
2022-09-05T20:57:46.086Z,28.60
2022-09-05T21:00:21.783Z,28.50
2022-09-05T21:02:58.479Z,28.40
2022-09-05T21:05:27.629Z,28.40
2022-09-05T21:08:16.652Z,28.30
2022-09-05T21:10:54.869Z,28.20
2022-09-05T21:13:26.779Z,28.20
2022-09-05T21:15:54.674Z,28.10
2022-09-05T21:18:33.038Z,28.10
2022-09-05T21:21:02.851Z,28.00
2022-09-05T21:23:44.412Z,27.90
2022-09-05T21:26:24.235Z,27.90
2022-09-05T21:29:11.161Z,27.80
2022-09-05T21:31:54.701Z,27.70
2022-09-05T21:34:26.653Z,27.70
2022-09-05T21:37:01.201Z,27.60
2022-09-05T21:39:40.345Z,27.60
2022-09-05T21:44:29.470Z,27.50
2022-09-05T21:47:37.648Z,27.40
2022-09-05T21:47:55.594Z,27.40
2022-09-05T21:50:31.181Z,27.30
2022-09-05T21:54:06.554Z,27.20
2022-09-05T21:59:33.301Z,27.20
2022-09-05T21:59:33.585Z,27.20
2022-09-05T22:01:50.778Z,27.00
2022-09-05T22:04:09.617Z,27.00
2022-09-05T22:06:36.777Z,27.00
2022-09-05T22:09:11.431Z,26.90
2022-09-05T22:11:40.997Z,26.80
2022-09-05T22:14:09.175Z,26.80
2022-09-05T22:16:37.666Z,26.70
2022-09-05T22:19:22.333Z,26.70
2022-09-05T22:22:00.416Z,26.70
2022-09-05T22:24:29.311Z,26.60
2022-09-05T22:27:12.468Z,26.60
2022-09-05T22:29:40.242Z,26.50
2022-09-05T22:32:07.315Z,26.40
2022-09-05T22:34:34.177Z,26.40
2022-09-05T22:37:00.873Z,26.30
2022-09-05T22:39:37.397Z,26.30
2022-09-05T22:42:10.270Z,26.20
2022-09-05T22:44:38.800Z,26.20
2022-09-05T22:47:09.128Z,26.20
2022-09-05T22:49:36.536Z,26.20
2022-09-05T22:52:06.652Z,26.10
2022-09-05T22:54:34.125Z,26.00
2022-09-05T22:57:01.144Z,26.00
2022-09-05T22:59:27.810Z,25.90
2022-09-05T23:01:54.626Z,25.90
2022-09-05T23:04:21.483Z,25.90
2022-09-05T23:06:48.279Z,25.80
2022-09-05T23:09:15.007Z,25.70
2022-09-05T23:11:41.787Z,25.70
2022-09-05T23:14:08.466Z,25.70
2022-09-05T23:16:35.169Z,25.60
2022-09-05T23:19:01.897Z,25.60
2022-09-05T23:21:28.654Z,25.60
2022-09-05T23:23:55.387Z,25.50
2022-09-05T23:26:22.413Z,25.50
2022-09-05T23:28:49.167Z,25.40
2022-09-05T23:31:16.058Z,25.30
2022-09-05T23:33:42.889Z,25.30
2022-09-05T23:36:12.572Z,25.30
2022-09-05T23:38:41.548Z,25.20
2022-09-05T23:41:11.802Z,25.20
2022-09-05T23:43:38.457Z,25.10
2022-09-05T23:46:05.466Z,25.10
2022-09-05T23:48:33.249Z,25.10
2022-09-05T23:51:09.243Z,25.10
2022-09-05T23:53:36.248Z,25.00
2022-09-05T23:56:04.560Z,25.00
2022-09-05T23:58:31.734Z,24.90
